sensor_id;sensor_type;location;lat;lon;timestamp;P1;durP1;ratioP1;P2;durP2;ratioP2
16689;SDS011;8458;52.220;9.884;2023-01-24T00:00:30;19.73;;;18.23;;
16689;SDS011;8458;52.220;9.884;2023-01-24T00:02:57;19.03;;;17.43;;
16689;SDS011;8458;52.220;9.884;2023-01-24T00:05:23;18.90;;;17.50;;
16689;SDS011;8458;52.220;9.884;2023-01-24T00:07:50;17.83;;;16.33;;
16689;SDS011;8458;52.220;9.884;2023-01-24T00:10:16;18.90;;;17.53;;
16689;SDS011;8458;52.220;9.884;2023-01-24T00:12:44;18.13;;;16.50;;
16689;SDS011;8458;52.220;9.884;2023-01-24T00:15:11;17.37;;;16.17;;
16689;SDS011;8458;52.220;9.884;2023-01-24T00:17:37;18.33;;;16.97;;
16689;SDS011;8458;52.220;9.884;2023-01-24T00:20:04;18.53;;;17.13;;
16689;SDS011;8458;52.220;9.884;2023-01-24T00:22:31;18.27;;;16.83;;
16689;SDS011;8458;52.220;9.884;2023-01-24T00:24:57;17.23;;;15.93;;
16689;SDS011;8458;52.220;9.884;2023-01-24T00:27:24;17.87;;;16.37;;
16689;SDS011;8458;52.220;9.884;2023-01-24T00:29:51;18.10;;;16.43;;
16689;SDS011;8458;52.220;9.884;2023-01-24T00:32:18;17.13;;;15.87;;
16689;SDS011;8458;52.220;9.884;2023-01-24T00:34:44;18.10;;;16.50;;
16689;SDS011;8458;52.220;9.884;2023-01-24T00:37:11;17.10;;;15.90;;
16689;SDS011;8458;52.220;9.884;2023-01-24T00:39:37;18.80;;;17.40;;
16689;SDS011;8458;52.220;9.884;2023-01-24T00:42:04;17.63;;;16.23;;
16689;SDS011;8458;52.220;9.884;2023-01-24T00:44:30;18.03;;;16.53;;
16689;SDS011;8458;52.220;9.884;2023-01-24T00:46:58;16.83;;;15.53;;
16689;SDS011;8458;52.220;9.884;2023-01-24T00:49:24;17.57;;;16.17;;
16689;SDS011;8458;52.220;9.884;2023-01-24T00:51:51;16.77;;;15.47;;
16689;SDS011;8458;52.220;9.884;2023-01-24T00:54:17;17.07;;;15.77;;
16689;SDS011;8458;52.220;9.884;2023-01-24T00:56:44;17.33;;;16.00;;
16689;SDS011;8458;52.220;9.884;2023-01-24T00:59:10;17.33;;;15.93;;
16689;SDS011;8458;52.220;9.884;2023-01-24T01:01:36;18.07;;;16.67;;
16689;SDS011;8458;52.220;9.884;2023-01-24T01:04:04;17.00;;;15.80;;
16689;SDS011;8458;52.220;9.884;2023-01-24T01:06:31;16.23;;;15.13;;
16689;SDS011;8458;52.220;9.884;2023-01-24T01:08:58;16.77;;;15.47;;
16689;SDS011;8458;52.220;9.884;2023-01-24T01:11:24;17.20;;;15.90;;
16689;SDS011;8458;52.220;9.884;2023-01-24T01:13:53;16.00;;;14.80;;
16689;SDS011;8458;52.220;9.884;2023-01-24T01:16:20;14.77;;;13.77;;
16689;SDS011;8458;52.220;9.884;2023-01-24T01:18:47;15.07;;;13.87;;
16689;SDS011;8458;52.220;9.884;2023-01-24T01:21:17;15.27;;;14.07;;
16689;SDS011;8458;52.220;9.884;2023-01-24T01:23:45;15.47;;;14.37;;
16689;SDS011;8458;52.220;9.884;2023-01-24T01:26:13;15.17;;;14.03;;
16689;SDS011;8458;52.220;9.884;2023-01-24T01:28:41;14.67;;;13.53;;
16689;SDS011;8458;52.220;9.884;2023-01-24T01:31:07;14.43;;;13.33;;
16689;SDS011;8458;52.220;9.884;2023-01-24T01:33:34;15.03;;;13.93;;
16689;SDS011;8458;52.220;9.884;2023-01-24T01:36:01;14.53;;;13.43;;
16689;SDS011;8458;52.220;9.884;2023-01-24T01:38:28;14.40;;;13.30;;
16689;SDS011;8458;52.220;9.884;2023-01-24T01:40:55;14.53;;;13.23;;
16689;SDS011;8458;52.220;9.884;2023-01-24T01:43:22;14.53;;;13.43;;
16689;SDS011;8458;52.220;9.884;2023-01-24T01:45:51;14.00;;;13.00;;
16689;SDS011;8458;52.220;9.884;2023-01-24T01:48:22;15.43;;;14.17;;
16689;SDS011;8458;52.220;9.884;2023-01-24T01:51:02;14.40;;;13.40;;
16689;SDS011;8458;52.220;9.884;2023-01-24T01:53:35;13.93;;;12.93;;
16689;SDS011;8458;52.220;9.884;2023-01-24T01:56:08;14.50;;;13.40;;
16689;SDS011;8458;52.220;9.884;2023-01-24T01:58:40;13.60;;;12.60;;
16689;SDS011;8458;52.220;9.884;2023-01-24T02:01:07;15.13;;;14.03;;
16689;SDS011;8458;52.220;9.884;2023-01-24T02:03:35;15.07;;;13.87;;
16689;SDS011;8458;52.220;9.884;2023-01-24T02:06:06;13.50;;;12.50;;
16689;SDS011;8458;52.220;9.884;2023-01-24T02:08:40;13.63;;;12.63;;
16689;SDS011;8458;52.220;9.884;2023-01-24T02:11:09;13.90;;;12.87;;
16689;SDS011;8458;52.220;9.884;2023-01-24T02:13:56;13.83;;;12.73;;
16689;SDS011;8458;52.220;9.884;2023-01-24T02:16:39;14.23;;;13.07;;
16689;SDS011;8458;52.220;9.884;2023-01-24T02:19:05;13.70;;;12.70;;
16689;SDS011;8458;52.220;9.884;2023-01-24T02:21:37;13.67;;;12.67;;
16689;SDS011;8458;52.220;9.884;2023-01-24T02:24:06;13.67;;;12.67;;
16689;SDS011;8458;52.220;9.884;2023-01-24T02:26:42;12.67;;;11.70;;
16689;SDS011;8458;52.220;9.884;2023-01-24T02:29:09;12.20;;;11.40;;
16689;SDS011;8458;52.220;9.884;2023-01-24T02:34:24;12.27;;;11.37;;
16689;SDS011;8458;52.220;9.884;2023-01-24T02:36:51;12.20;;;11.23;;
16689;SDS011;8458;52.220;9.884;2023-01-24T02:39:22;11.73;;;10.93;;
16689;SDS011;8458;52.220;9.884;2023-01-24T02:41:54;10.97;;;10.17;;
16689;SDS011;8458;52.220;9.884;2023-01-24T02:44:24;10.70;;;9.90;;
16689;SDS011;8458;52.220;9.884;2023-01-24T02:46:55;10.53;;;9.83;;
16689;SDS011;8458;52.220;9.884;2023-01-24T02:49:21;10.63;;;9.73;;
16689;SDS011;8458;52.220;9.884;2023-01-24T02:51:48;11.23;;;10.33;;
16689;SDS011;8458;52.220;9.884;2023-01-24T02:54:32;10.70;;;9.93;;
16689;SDS011;8458;52.220;9.884;2023-01-24T02:57:00;9.90;;;9.20;;
16689;SDS011;8458;52.220;9.884;2023-01-24T02:59:44;10.67;;;9.83;;
16689;SDS011;8458;52.220;9.884;2023-01-24T03:02:10;11.10;;;10.30;;
16689;SDS011;8458;52.220;9.884;2023-01-24T03:04:37;9.97;;;9.17;;
16689;SDS011;8458;52.220;9.884;2023-01-24T03:07:03;11.03;;;10.23;;
16689;SDS011;8458;52.220;9.884;2023-01-24T03:09:30;10.17;;;9.47;;
16689;SDS011;8458;52.220;9.884;2023-01-24T03:12:01;10.23;;;9.53;;
16689;SDS011;8458;52.220;9.884;2023-01-24T03:14:46;10.07;;;9.30;;
16689;SDS011;8458;52.220;9.884;2023-01-24T03:17:30;9.90;;;9.10;;
16689;SDS011;8458;52.220;9.884;2023-01-24T03:20:14;9.60;;;8.73;;
16689;SDS011;8458;52.220;9.884;2023-01-24T03:22:58;9.50;;;8.80;;
16689;SDS011;8458;52.220;9.884;2023-01-24T03:25:42;9.37;;;8.67;;
16689;SDS011;8458;52.220;9.884;2023-01-24T03:28:28;8.97;;;8.27;;
16689;SDS011;8458;52.220;9.884;2023-01-24T03:31:11;8.07;;;7.47;;
16689;SDS011;8458;52.220;9.884;2023-01-24T03:33:55;8.00;;;7.40;;
16689;SDS011;8458;52.220;9.884;2023-01-24T03:36:39;8.10;;;7.50;;
16689;SDS011;8458;52.220;9.884;2023-01-24T03:39:05;7.80;;;7.30;;
16689;SDS011;8458;52.220;9.884;2023-01-24T03:41:50;8.23;;;7.60;;
16689;SDS011;8458;52.220;9.884;2023-01-24T03:44:18;8.07;;;7.40;;
16689;SDS011;8458;52.220;9.884;2023-01-24T03:46:44;8.47;;;7.87;;
16689;SDS011;8458;52.220;9.884;2023-01-24T03:49:12;8.77;;;7.97;;
16689;SDS011;8458;52.220;9.884;2023-01-24T03:51:39;8.33;;;7.63;;
16689;SDS011;8458;52.220;9.884;2023-01-24T03:54:23;7.67;;;7.17;;
16689;SDS011;8458;52.220;9.884;2023-01-24T03:56:49;8.47;;;7.87;;
16689;SDS011;8458;52.220;9.884;2023-01-24T03:59:17;8.70;;;8.03;;
16689;SDS011;8458;52.220;9.884;2023-01-24T04:01:43;8.30;;;7.70;;
16689;SDS011;8458;52.220;9.884;2023-01-24T04:04:10;8.57;;;7.97;;
16689;SDS011;8458;52.220;9.884;2023-01-24T04:06:36;8.73;;;8.13;;
16689;SDS011;8458;52.220;9.884;2023-01-24T04:09:03;8.30;;;7.70;;
16689;SDS011;8458;52.220;9.884;2023-01-24T04:11:29;8.43;;;7.80;;
16689;SDS011;8458;52.220;9.884;2023-01-24T04:13:56;8.33;;;7.73;;
16689;SDS011;8458;52.220;9.884;2023-01-24T04:16:24;8.73;;;8.13;;
16689;SDS011;8458;52.220;9.884;2023-01-24T04:18:50;8.20;;;7.60;;
16689;SDS011;8458;52.220;9.884;2023-01-24T04:21:17;8.80;;;8.10;;
16689;SDS011;8458;52.220;9.884;2023-01-24T04:23:43;7.97;;;7.40;;
16689;SDS011;8458;52.220;9.884;2023-01-24T04:26:09;7.97;;;7.37;;
16689;SDS011;8458;52.220;9.884;2023-01-24T04:28:36;8.07;;;7.47;;
16689;SDS011;8458;52.220;9.884;2023-01-24T04:31:02;8.03;;;7.43;;
16689;SDS011;8458;52.220;9.884;2023-01-24T04:33:31;8.00;;;7.40;;
16689;SDS011;8458;52.220;9.884;2023-01-24T04:35:57;7.30;;;6.80;;
16689;SDS011;8458;52.220;9.884;2023-01-24T04:38:24;7.57;;;7.07;;
16689;SDS011;8458;52.220;9.884;2023-01-24T04:40:58;7.77;;;7.27;;
16689;SDS011;8458;52.220;9.884;2023-01-24T04:43:25;7.90;;;7.30;;
16689;SDS011;8458;52.220;9.884;2023-01-24T04:45:54;7.80;;;7.23;;
16689;SDS011;8458;52.220;9.884;2023-01-24T04:48:21;7.87;;;7.37;;
16689;SDS011;8458;52.220;9.884;2023-01-24T04:50:49;7.67;;;7.07;;
16689;SDS011;8458;52.220;9.884;2023-01-24T04:53:16;6.83;;;6.33;;
16689;SDS011;8458;52.220;9.884;2023-01-24T04:55:42;6.90;;;6.43;;
16689;SDS011;8458;52.220;9.884;2023-01-24T04:58:09;6.17;;;5.70;;
16689;SDS011;8458;52.220;9.884;2023-01-24T05:00:35;6.87;;;6.37;;
16689;SDS011;8458;52.220;9.884;2023-01-24T05:03:02;7.13;;;6.63;;
16689;SDS011;8458;52.220;9.884;2023-01-24T05:05:28;7.37;;;6.80;;
16689;SDS011;8458;52.220;9.884;2023-01-24T05:07:56;6.80;;;6.33;;
16689;SDS011;8458;52.220;9.884;2023-01-24T05:10:23;7.07;;;6.53;;
16689;SDS011;8458;52.220;9.884;2023-01-24T05:12:49;7.23;;;6.77;;
16689;SDS011;8458;52.220;9.884;2023-01-24T05:15:16;6.93;;;6.33;;
16689;SDS011;8458;52.220;9.884;2023-01-24T05:17:42;7.13;;;6.60;;
16689;SDS011;8458;52.220;9.884;2023-01-24T05:20:09;6.37;;;5.97;;
16689;SDS011;8458;52.220;9.884;2023-01-24T05:22:37;6.07;;;5.67;;
16689;SDS011;8458;52.220;9.884;2023-01-24T05:25:05;5.77;;;5.37;;
16689;SDS011;8458;52.220;9.884;2023-01-24T05:27:32;5.60;;;5.20;;
16689;SDS011;8458;52.220;9.884;2023-01-24T05:29:59;6.30;;;5.90;;
16689;SDS011;8458;52.220;9.884;2023-01-24T05:32:26;5.13;;;4.83;;
16689;SDS011;8458;52.220;9.884;2023-01-24T05:34:52;5.87;;;5.47;;
16689;SDS011;8458;52.220;9.884;2023-01-24T05:37:19;5.63;;;5.23;;
16689;SDS011;8458;52.220;9.884;2023-01-24T05:39:45;5.67;;;5.23;;
16689;SDS011;8458;52.220;9.884;2023-01-24T05:42:13;5.60;;;5.20;;
16689;SDS011;8458;52.220;9.884;2023-01-24T05:44:39;5.80;;;5.40;;
16689;SDS011;8458;52.220;9.884;2023-01-24T05:47:06;5.77;;;5.37;;
16689;SDS011;8458;52.220;9.884;2023-01-24T05:49:33;5.83;;;5.43;;
16689;SDS011;8458;52.220;9.884;2023-01-24T05:51:59;5.60;;;5.20;;
16689;SDS011;8458;52.220;9.884;2023-01-24T05:54:25;5.83;;;5.47;;
16689;SDS011;8458;52.220;9.884;2023-01-24T05:56:52;5.90;;;5.50;;
16689;SDS011;8458;52.220;9.884;2023-01-24T05:59:20;5.40;;;5.07;;
16689;SDS011;8458;52.220;9.884;2023-01-24T06:01:47;5.23;;;4.83;;
16689;SDS011;8458;52.220;9.884;2023-01-24T06:04:13;5.83;;;5.43;;
16689;SDS011;8458;52.220;9.884;2023-01-24T06:06:40;5.77;;;5.30;;
16689;SDS011;8458;52.220;9.884;2023-01-24T06:09:06;5.47;;;5.07;;
16689;SDS011;8458;52.220;9.884;2023-01-24T06:11:33;5.50;;;5.10;;
16689;SDS011;8458;52.220;9.884;2023-01-24T06:14:00;5.70;;;5.30;;
16689;SDS011;8458;52.220;9.884;2023-01-24T06:16:27;5.30;;;4.80;;
16689;SDS011;8458;52.220;9.884;2023-01-24T06:18:54;5.53;;;5.13;;
16689;SDS011;8458;52.220;9.884;2023-01-24T06:21:24;5.03;;;4.63;;
16689;SDS011;8458;52.220;9.884;2023-01-24T06:24:00;4.43;;;4.13;;
16689;SDS011;8458;52.220;9.884;2023-01-24T06:26:27;4.80;;;4.43;;
16689;SDS011;8458;52.220;9.884;2023-01-24T06:28:54;5.40;;;5.00;;
16689;SDS011;8458;52.220;9.884;2023-01-24T06:31:25;5.07;;;4.77;;
16689;SDS011;8458;52.220;9.884;2023-01-24T06:34:09;5.90;;;5.40;;
16689;SDS011;8458;52.220;9.884;2023-01-24T06:36:48;4.33;;;4.03;;
16689;SDS011;8458;52.220;9.884;2023-01-24T06:39:25;5.30;;;4.90;;
16689;SDS011;8458;52.220;9.884;2023-01-24T06:41:52;4.40;;;4.10;;
16689;SDS011;8458;52.220;9.884;2023-01-24T06:44:18;4.40;;;4.10;;
16689;SDS011;8458;52.220;9.884;2023-01-24T06:46:47;4.13;;;3.83;;
16689;SDS011;8458;52.220;9.884;2023-01-24T06:49:13;3.73;;;3.43;;
16689;SDS011;8458;52.220;9.884;2023-01-24T06:51:40;3.60;;;3.30;;
16689;SDS011;8458;52.220;9.884;2023-01-24T06:54:06;3.10;;;2.80;;
16689;SDS011;8458;52.220;9.884;2023-01-24T06:56:33;2.80;;;2.60;;
16689;SDS011;8458;52.220;9.884;2023-01-24T06:58:59;3.23;;;3.03;;
16689;SDS011;8458;52.220;9.884;2023-01-24T07:01:26;3.10;;;2.90;;
16689;SDS011;8458;52.220;9.884;2023-01-24T07:03:54;3.47;;;3.27;;
16689;SDS011;8458;52.220;9.884;2023-01-24T07:06:21;3.70;;;3.50;;
16689;SDS011;8458;52.220;9.884;2023-01-24T07:08:48;3.97;;;3.70;;
16689;SDS011;8458;52.220;9.884;2023-01-24T07:11:15;4.30;;;4.00;;
16689;SDS011;8458;52.220;9.884;2023-01-24T07:13:41;4.00;;;3.70;;
16689;SDS011;8458;52.220;9.884;2023-01-24T07:16:08;4.07;;;3.77;;
16689;SDS011;8458;52.220;9.884;2023-01-24T07:18:35;3.70;;;3.40;;
16689;SDS011;8458;52.220;9.884;2023-01-24T07:21:05;4.40;;;4.10;;
16689;SDS011;8458;52.220;9.884;2023-01-24T07:23:33;4.40;;;4.10;;
16689;SDS011;8458;52.220;9.884;2023-01-24T07:26:00;4.10;;;3.80;;
16689;SDS011;8458;52.220;9.884;2023-01-24T07:28:28;4.43;;;4.13;;
16689;SDS011;8458;52.220;9.884;2023-01-24T07:30:54;5.00;;;4.60;;
16689;SDS011;8458;52.220;9.884;2023-01-24T07:33:21;5.20;;;4.80;;
16689;SDS011;8458;52.220;9.884;2023-01-24T07:35:47;4.93;;;4.53;;
16689;SDS011;8458;52.220;9.884;2023-01-24T07:38:15;4.27;;;3.97;;
16689;SDS011;8458;52.220;9.884;2023-01-24T07:40:42;3.93;;;3.70;;
16689;SDS011;8458;52.220;9.884;2023-01-24T07:43:08;4.80;;;4.50;;
16689;SDS011;8458;52.220;9.884;2023-01-24T07:45:35;4.17;;;3.87;;
16689;SDS011;8458;52.220;9.884;2023-01-24T07:48:03;4.00;;;3.70;;
16689;SDS011;8458;52.220;9.884;2023-01-24T07:50:31;3.63;;;3.33;;
16689;SDS011;8458;52.220;9.884;2023-01-24T07:52:58;3.97;;;3.67;;
16689;SDS011;8458;52.220;9.884;2023-01-24T07:55:26;4.40;;;4.10;;
16689;SDS011;8458;52.220;9.884;2023-01-24T07:57:57;5.10;;;4.80;;
16689;SDS011;8458;52.220;9.884;2023-01-24T08:00:24;4.67;;;4.37;;
16689;SDS011;8458;52.220;9.884;2023-01-24T08:02:50;4.30;;;4.00;;
16689;SDS011;8458;52.220;9.884;2023-01-24T08:05:17;5.13;;;4.83;;
16689;SDS011;8458;52.220;9.884;2023-01-24T08:07:43;4.13;;;3.90;;
16689;SDS011;8458;52.220;9.884;2023-01-24T08:10:10;4.43;;;4.03;;
16689;SDS011;8458;52.220;9.884;2023-01-24T08:12:38;4.53;;;4.23;;
16689;SDS011;8458;52.220;9.884;2023-01-24T08:15:05;4.10;;;3.80;;
16689;SDS011;8458;52.220;9.884;2023-01-24T08:17:32;4.67;;;4.37;;
16689;SDS011;8458;52.220;9.884;2023-01-24T08:20:00;4.20;;;4.00;;
16689;SDS011;8458;52.220;9.884;2023-01-24T08:22:27;5.23;;;4.93;;
16689;SDS011;8458;52.220;9.884;2023-01-24T08:24:54;5.07;;;4.77;;
16689;SDS011;8458;52.220;9.884;2023-01-24T08:27:21;4.83;;;4.53;;
16689;SDS011;8458;52.220;9.884;2023-01-24T08:29:49;3.83;;;3.63;;
16689;SDS011;8458;52.220;9.884;2023-01-24T08:32:15;4.17;;;3.97;;
16689;SDS011;8458;52.220;9.884;2023-01-24T08:34:42;4.20;;;3.90;;
16689;SDS011;8458;52.220;9.884;2023-01-24T08:37:08;4.50;;;4.20;;
16689;SDS011;8458;52.220;9.884;2023-01-24T08:39:35;4.50;;;4.20;;
16689;SDS011;8458;52.220;9.884;2023-01-24T08:42:06;5.40;;;4.80;;
16689;SDS011;8458;52.220;9.884;2023-01-24T08:45:11;5.23;;;4.93;;
16689;SDS011;8458;52.220;9.884;2023-01-24T08:47:38;4.90;;;4.60;;
16689;SDS011;8458;52.220;9.884;2023-01-24T08:50:04;3.83;;;3.63;;
16689;SDS011;8458;52.220;9.884;2023-01-24T08:52:32;3.40;;;3.20;;
16689;SDS011;8458;52.220;9.884;2023-01-24T08:54:58;3.93;;;3.73;;
16689;SDS011;8458;52.220;9.884;2023-01-24T08:57:25;4.50;;;4.20;;
16689;SDS011;8458;52.220;9.884;2023-01-24T08:59:51;4.97;;;4.67;;
16689;SDS011;8458;52.220;9.884;2023-01-24T09:02:19;4.57;;;4.27;;
16689;SDS011;8458;52.220;9.884;2023-01-24T09:04:46;4.77;;;4.47;;
16689;SDS011;8458;52.220;9.884;2023-01-24T09:07:12;4.87;;;4.40;;
16689;SDS011;8458;52.220;9.884;2023-01-24T09:09:39;4.27;;;4.00;;
16689;SDS011;8458;52.220;9.884;2023-01-24T09:12:05;3.80;;;3.50;;
16689;SDS011;8458;52.220;9.884;2023-01-24T09:14:32;4.43;;;4.13;;
16689;SDS011;8458;52.220;9.884;2023-01-24T09:16:58;4.13;;;3.83;;
16689;SDS011;8458;52.220;9.884;2023-01-24T09:19:26;4.67;;;4.37;;
16689;SDS011;8458;52.220;9.884;2023-01-24T09:21:52;4.87;;;4.57;;
16689;SDS011;8458;52.220;9.884;2023-01-24T09:24:21;5.20;;;4.90;;
16689;SDS011;8458;52.220;9.884;2023-01-24T09:26:48;4.83;;;4.50;;
16689;SDS011;8458;52.220;9.884;2023-01-24T09:29:14;5.80;;;5.30;;
16689;SDS011;8458;52.220;9.884;2023-01-24T09:31:41;4.90;;;4.50;;
16689;SDS011;8458;52.220;9.884;2023-01-24T09:34:07;4.33;;;4.03;;
16689;SDS011;8458;52.220;9.884;2023-01-24T09:36:35;4.47;;;4.20;;
16689;SDS011;8458;52.220;9.884;2023-01-24T09:39:02;5.20;;;4.40;;
16689;SDS011;8458;52.220;9.884;2023-01-24T09:41:32;3.97;;;3.67;;
16689;SDS011;8458;52.220;9.884;2023-01-24T09:44:09;4.17;;;3.70;;
16689;SDS011;8458;52.220;9.884;2023-01-24T09:46:46;4.83;;;4.53;;
16689;SDS011;8458;52.220;9.884;2023-01-24T09:49:15;5.03;;;4.73;;
16689;SDS011;8458;52.220;9.884;2023-01-24T09:51:50;5.43;;;5.03;;
16689;SDS011;8458;52.220;9.884;2023-01-24T09:54:21;4.13;;;3.83;;
16689;SDS011;8458;52.220;9.884;2023-01-24T09:56:55;4.97;;;4.63;;
16689;SDS011;8458;52.220;9.884;2023-01-24T09:59:23;4.27;;;4.07;;
16689;SDS011;8458;52.220;9.884;2023-01-24T10:02:05;4.53;;;4.07;;
16689;SDS011;8458;52.220;9.884;2023-01-24T10:04:42;4.63;;;4.33;;
16689;SDS011;8458;52.220;9.884;2023-01-24T10:07:15;4.57;;;4.27;;
16689;SDS011;8458;52.220;9.884;2023-01-24T10:09:54;4.57;;;4.27;;
16689;SDS011;8458;52.220;9.884;2023-01-24T10:12:36;4.63;;;4.33;;
16689;SDS011;8458;52.220;9.884;2023-01-24T10:15:13;4.33;;;4.13;;
16689;SDS011;8458;52.220;9.884;2023-01-24T10:17:54;5.00;;;4.70;;
16689;SDS011;8458;52.220;9.884;2023-01-24T10:20:40;3.93;;;3.73;;
16689;SDS011;8458;52.220;9.884;2023-01-24T10:23:16;3.90;;;3.70;;
16689;SDS011;8458;52.220;9.884;2023-01-24T10:25:50;4.33;;;4.13;;
16689;SDS011;8458;52.220;9.884;2023-01-24T10:28:23;4.50;;;4.20;;
16689;SDS011;8458;52.220;9.884;2023-01-24T10:30:54;5.10;;;4.80;;
16689;SDS011;8458;52.220;9.884;2023-01-24T10:33:26;4.30;;;4.00;;
16689;SDS011;8458;52.220;9.884;2023-01-24T10:35:58;4.10;;;3.80;;
16689;SDS011;8458;52.220;9.884;2023-01-24T10:38:32;4.00;;;3.77;;
16689;SDS011;8458;52.220;9.884;2023-01-24T10:41:04;5.00;;;4.70;;
16689;SDS011;8458;52.220;9.884;2023-01-24T10:43:40;4.23;;;3.93;;
16689;SDS011;8458;52.220;9.884;2023-01-24T10:46:16;4.50;;;4.20;;
16689;SDS011;8458;52.220;9.884;2023-01-24T10:48:56;4.23;;;3.93;;
16689;SDS011;8458;52.220;9.884;2023-01-24T10:51:27;4.73;;;4.40;;
16689;SDS011;8458;52.220;9.884;2023-01-24T10:53:56;4.70;;;4.40;;
16689;SDS011;8458;52.220;9.884;2023-01-24T10:56:26;4.07;;;3.77;;
16689;SDS011;8458;52.220;9.884;2023-01-24T10:58:56;4.40;;;4.10;;
16689;SDS011;8458;52.220;9.884;2023-01-24T11:01:31;4.27;;;4.07;;
16689;SDS011;8458;52.220;9.884;2023-01-24T11:03:58;3.93;;;3.73;;
16689;SDS011;8458;52.220;9.884;2023-01-24T11:06:38;4.03;;;3.80;;
16689;SDS011;8458;52.220;9.884;2023-01-24T11:09:08;4.20;;;3.90;;
16689;SDS011;8458;52.220;9.884;2023-01-24T11:11:39;4.20;;;3.90;;
16689;SDS011;8458;52.220;9.884;2023-01-24T11:14:10;3.87;;;3.67;;
16689;SDS011;8458;52.220;9.884;2023-01-24T11:16:41;3.57;;;3.37;;
16689;SDS011;8458;52.220;9.884;2023-01-24T11:19:20;4.83;;;4.47;;
16689;SDS011;8458;52.220;9.884;2023-01-24T11:21:49;4.10;;;3.73;;
16689;SDS011;8458;52.220;9.884;2023-01-24T11:24:19;4.37;;;4.07;;
16689;SDS011;8458;52.220;9.884;2023-01-24T11:26:50;4.07;;;3.77;;
16689;SDS011;8458;52.220;9.884;2023-01-24T11:29:20;3.80;;;3.50;;
16689;SDS011;8458;52.220;9.884;2023-01-24T11:31:47;3.77;;;3.57;;
16689;SDS011;8458;52.220;9.884;2023-01-24T11:34:23;4.30;;;4.03;;
16689;SDS011;8458;52.220;9.884;2023-01-24T11:37:04;4.83;;;4.53;;
16689;SDS011;8458;52.220;9.884;2023-01-24T11:39:43;4.00;;;3.77;;
16689;SDS011;8458;52.220;9.884;2023-01-24T11:42:17;4.40;;;4.10;;
16689;SDS011;8458;52.220;9.884;2023-01-24T11:44:55;3.93;;;3.63;;
16689;SDS011;8458;52.220;9.884;2023-01-24T11:47:31;4.10;;;3.80;;
16689;SDS011;8458;52.220;9.884;2023-01-24T11:50:11;3.83;;;3.60;;
16689;SDS011;8458;52.220;9.884;2023-01-24T11:52:52;4.43;;;4.17;;
16689;SDS011;8458;52.220;9.884;2023-01-24T11:55:37;4.57;;;4.30;;
16689;SDS011;8458;52.220;9.884;2023-01-24T11:58:18;3.90;;;3.70;;
16689;SDS011;8458;52.220;9.884;2023-01-24T12:00:55;4.57;;;4.27;;
16689;SDS011;8458;52.220;9.884;2023-01-24T12:03:40;5.20;;;4.90;;
16689;SDS011;8458;52.220;9.884;2023-01-24T12:06:22;4.43;;;4.13;;
16689;SDS011;8458;52.220;9.884;2023-01-24T12:09:02;5.10;;;4.70;;
16689;SDS011;8458;52.220;9.884;2023-01-24T12:11:38;5.43;;;5.13;;
16689;SDS011;8458;52.220;9.884;2023-01-24T12:14:15;4.83;;;4.53;;
16689;SDS011;8458;52.220;9.884;2023-01-24T12:17:02;4.53;;;4.23;;
16689;SDS011;8458;52.220;9.884;2023-01-24T12:22:26;4.80;;;4.50;;
16689;SDS011;8458;52.220;9.884;2023-01-24T12:24:54;4.33;;;4.13;;
16689;SDS011;8458;52.220;9.884;2023-01-24T12:27:25;4.00;;;3.80;;
16689;SDS011;8458;52.220;9.884;2023-01-24T12:29:57;5.23;;;4.83;;
16689;SDS011;8458;52.220;9.884;2023-01-24T12:32:28;5.50;;;5.10;;
16689;SDS011;8458;52.220;9.884;2023-01-24T12:35:04;4.67;;;4.47;;
16689;SDS011;8458;52.220;9.884;2023-01-24T12:37:41;5.20;;;4.90;;
16689;SDS011;8458;52.220;9.884;2023-01-24T12:40:15;5.53;;;5.23;;
16689;SDS011;8458;52.220;9.884;2023-01-24T12:42:50;5.30;;;4.97;;
16689;SDS011;8458;52.220;9.884;2023-01-24T12:45:23;5.37;;;5.07;;
16689;SDS011;8458;52.220;9.884;2023-01-24T12:47:55;4.43;;;4.13;;
16689;SDS011;8458;52.220;9.884;2023-01-24T12:50:30;5.03;;;4.73;;
16689;SDS011;8458;52.220;9.884;2023-01-24T12:53:05;4.83;;;4.53;;
16689;SDS011;8458;52.220;9.884;2023-01-24T12:55:40;5.10;;;4.80;;
16689;SDS011;8458;52.220;9.884;2023-01-24T12:58:14;5.20;;;4.90;;
16689;SDS011;8458;52.220;9.884;2023-01-24T13:00:48;5.33;;;4.93;;
16689;SDS011;8458;52.220;9.884;2023-01-24T13:03:33;5.47;;;5.17;;
16689;SDS011;8458;52.220;9.884;2023-01-24T13:06:15;4.97;;;4.67;;
16689;SDS011;8458;52.220;9.884;2023-01-24T13:08:50;5.57;;;5.27;;
16689;SDS011;8458;52.220;9.884;2023-01-24T13:11:23;6.40;;;6.00;;
16689;SDS011;8458;52.220;9.884;2023-01-24T13:13:57;5.87;;;5.57;;
16689;SDS011;8458;52.220;9.884;2023-01-24T13:16:44;6.77;;;6.30;;
16689;SDS011;8458;52.220;9.884;2023-01-24T13:19:39;8.00;;;7.50;;
16689;SDS011;8458;52.220;9.884;2023-01-24T13:22:33;6.10;;;5.70;;
16689;SDS011;8458;52.220;9.884;2023-01-24T13:25:12;5.40;;;5.10;;
16689;SDS011;8458;52.220;9.884;2023-01-24T13:27:57;5.70;;;5.40;;
16689;SDS011;8458;52.220;9.884;2023-01-24T13:30:33;8.63;;;8.13;;
16689;SDS011;8458;52.220;9.884;2023-01-24T13:33:07;7.20;;;6.77;;
16689;SDS011;8458;52.220;9.884;2023-01-24T13:35:44;9.23;;;8.63;;
16689;SDS011;8458;52.220;9.884;2023-01-24T13:38:17;7.40;;;6.17;;
16689;SDS011;8458;52.220;9.884;2023-01-24T13:40:58;7.37;;;6.87;;
16689;SDS011;8458;52.220;9.884;2023-01-24T13:49:43;8.80;;;8.30;;
16689;SDS011;8458;52.220;9.884;2023-01-24T13:55:15;7.73;;;7.23;;
16689;SDS011;8458;52.220;9.884;2023-01-24T13:58:24;7.10;;;6.70;;
16689;SDS011;8458;52.220;9.884;2023-01-24T14:00:52;8.70;;;8.20;;
16689;SDS011;8458;52.220;9.884;2023-01-24T14:03:22;7.07;;;6.67;;
16689;SDS011;8458;52.220;9.884;2023-01-24T14:05:53;7.07;;;6.57;;
16689;SDS011;8458;52.220;9.884;2023-01-24T14:08:36;7.27;;;6.80;;
16689;SDS011;8458;52.220;9.884;2023-01-24T14:11:16;7.70;;;7.30;;
16689;SDS011;8458;52.220;9.884;2023-01-24T14:14:02;14.30;;;13.20;;
16689;SDS011;8458;52.220;9.884;2023-01-24T14:16:56;9.93;;;9.33;;
16689;SDS011;8458;52.220;9.884;2023-01-24T14:19:44;10.20;;;9.60;;
16689;SDS011;8458;52.220;9.884;2023-01-24T14:22:19;8.87;;;8.27;;
16689;SDS011;8458;52.220;9.884;2023-01-24T14:24:51;9.07;;;8.27;;
16689;SDS011;8458;52.220;9.884;2023-01-24T14:27:23;9.53;;;8.93;;
16689;SDS011;8458;52.220;9.884;2023-01-24T14:29:54;9.17;;;8.53;;
16689;SDS011;8458;52.220;9.884;2023-01-24T14:32:27;8.90;;;8.30;;
16689;SDS011;8458;52.220;9.884;2023-01-24T14:34:59;8.87;;;8.27;;
16689;SDS011;8458;52.220;9.884;2023-01-24T14:37:38;10.57;;;9.93;;
16689;SDS011;8458;52.220;9.884;2023-01-24T14:40:11;7.10;;;6.70;;
16689;SDS011;8458;52.220;9.884;2023-01-24T14:42:46;7.27;;;6.80;;
16689;SDS011;8458;52.220;9.884;2023-01-24T14:45:14;9.63;;;9.10;;
16689;SDS011;8458;52.220;9.884;2023-01-24T14:47:45;8.10;;;7.60;;
16689;SDS011;8458;52.220;9.884;2023-01-24T14:50:18;7.50;;;7.10;;
16689;SDS011;8458;52.220;9.884;2023-01-24T14:52:47;8.30;;;7.80;;
16689;SDS011;8458;52.220;9.884;2023-01-24T14:55:22;8.47;;;7.97;;
16689;SDS011;8458;52.220;9.884;2023-01-24T14:57:57;8.50;;;8.00;;
16689;SDS011;8458;52.220;9.884;2023-01-24T15:00:39;7.43;;;6.93;;
16689;SDS011;8458;52.220;9.884;2023-01-24T15:03:06;8.17;;;7.57;;
16689;SDS011;8458;52.220;9.884;2023-01-24T15:05:33;7.93;;;7.43;;
16689;SDS011;8458;52.220;9.884;2023-01-24T15:08:02;9.57;;;8.87;;
16689;SDS011;8458;52.220;9.884;2023-01-24T15:10:31;9.30;;;8.70;;
16689;SDS011;8458;52.220;9.884;2023-01-24T15:13:02;12.80;;;11.80;;
16689;SDS011;8458;52.220;9.884;2023-01-24T15:15:32;11.93;;;11.07;;
16689;SDS011;8458;52.220;9.884;2023-01-24T15:18:00;15.17;;;13.83;;
16689;SDS011;8458;52.220;9.884;2023-01-24T15:20:28;8.57;;;7.97;;
16689;SDS011;8458;52.220;9.884;2023-01-24T15:22:56;10.27;;;9.60;;
16689;SDS011;8458;52.220;9.884;2023-01-24T15:25:25;15.30;;;14.30;;
16689;SDS011;8458;52.220;9.884;2023-01-24T15:27:54;10.93;;;10.13;;
16689;SDS011;8458;52.220;9.884;2023-01-24T15:30:24;8.97;;;8.47;;
16689;SDS011;8458;52.220;9.884;2023-01-24T15:32:59;10.70;;;9.97;;